Time;durP1;ratioP1;P1;durP2;ratioP2;P2;SDS_P1;SDS_P2;PMS_P1;PMS_P2;Temp;Humidity;BMP_temperature;BMP_pressure;BME280_temperature;BME280_humidity;BME280_pressure;Samples;Min_cycle;Max_cycle;Signal;HPM_P1;HPM_P2
2023/01/14 00:01:22;;;;;;;7.47;3.07;;;23.00;49.80;;;;;;5068769;28;20588;-76
2023/01/14 00:03:51;;;;;;;8.73;3.03;;;23.00;49.90;;;;;;5067709;28;20658;-78
2023/01/14 00:06:20;;;;;;;8.40;3.23;;;23.00;49.70;;;;;;5068361;28;20293;-76
2023/01/14 00:08:47;;;;;;;7.33;3.00;;;23.00;49.90;;;;;;5067448;28;20565;-81
2023/01/14 00:11:15;;;;;;;9.77;3.43;;;23.00;49.80;;;;;;5068328;28;20206;-78
2023/01/14 00:13:43;;;;;;;12.00;4.10;;;23.00;49.80;;;;;;5065964;28;20290;-75
2023/01/14 00:16:12;;;;;;;9.27;3.57;;;23.00;49.80;;;;;;5068502;28;20202;-79
2023/01/14 00:18:40;;;;;;;10.87;3.33;;;23.00;49.90;;;;;;5065756;28;20231;-77
2023/01/14 00:21:12;;;;;;;13.53;5.17;;;23.00;49.80;;;;;;5066149;28;20226;-83
2023/01/14 00:23:39;;;;;;;10.20;3.77;;;23.00;49.50;;;;;;5067382;28;20199;-74
2023/01/14 00:26:08;;;;;;;10.10;3.33;;;23.00;49.70;;;;;;5066005;28;20199;-73
2023/01/14 00:28:35;;;;;;;11.30;3.80;;;23.00;49.60;;;;;;5067135;28;20213;-77
2023/01/14 00:31:07;;;;;;;9.13;3.03;;;23.00;49.50;;;;;;5050143;28;20204;-78
2023/01/14 00:33:38;;;;;;;8.53;3.20;;;23.00;49.20;;;;;;5053167;28;20294;-78
2023/01/14 00:36:06;;;;;;;7.57;3.03;;;23.00;49.40;;;;;;5067538;28;20202;-78
2023/01/14 00:38:35;;;;;;;6.73;2.97;;;23.00;49.50;;;;;;5066692;28;20318;-79
2023/01/14 00:41:05;;;;;;;7.23;2.80;;;23.00;49.70;;;;;;5067129;28;20960;-75
2023/01/14 00:43:32;;;;;;;17.40;5.60;;;23.00;49.60;;;;;;5065867;28;20238;-74
2023/01/14 00:45:59;;;;;;;8.57;3.00;;;23.00;49.40;;;;;;5067616;28;20203;-72
2023/01/14 00:48:26;;;;;;;10.70;3.50;;;23.00;49.90;;;;;;5067742;28;20287;-73
2023/01/14 00:50:53;;;;;;;10.07;3.60;;;23.00;49.60;;;;;;5066624;28;20235;-73
2023/01/14 00:53:20;;;;;;;8.83;3.50;;;23.00;49.70;;;;;;5052173;28;20287;-73
2023/01/14 00:55:48;;;;;;;13.87;4.40;;;23.00;49.50;;;;;;5066557;28;20286;-74
2023/01/14 00:58:15;;;;;;;8.60;2.97;;;23.00;49.40;;;;;;5069269;28;20206;-73
2023/01/14 01:00:42;;;;;;;10.63;3.47;;;23.00;49.30;;;;;;5070401;28;20263;-73
2023/01/14 01:03:09;;;;;;;9.47;3.50;;;23.00;49.30;;;;;;5070804;28;20200;-73
2023/01/14 01:05:36;;;;;;;9.57;3.13;;;23.00;49.10;;;;;;5071323;28;20205;-85
2023/01/14 01:08:04;;;;;;;11.80;4.07;;;23.00;49.20;;;;;;5069266;28;20196;-77
2023/01/14 01:10:32;;;;;;;9.50;3.70;;;23.00;49.10;;;;;;5071640;28;20200;-79
2023/01/14 01:13:00;;;;;;;27.10;8.20;;;23.00;49.40;;;;;;5066666;28;20194;-73
2023/01/14 01:15:27;;;;;;;9.00;3.40;;;23.00;49.10;;;;;;5067497;28;20702;-77
2023/01/14 01:17:55;;;;;;;8.03;3.33;;;23.00;49.20;;;;;;5084687;28;20206;-78
2023/01/14 01:20:22;;;;;;;10.30;3.07;;;23.00;49.10;;;;;;5070989;28;20791;-78
2023/01/14 01:22:48;;;;;;;10.93;3.63;;;23.00;49.50;;;;;;5071196;28;20203;-87
2023/01/14 01:25:16;;;;;;;12.30;4.60;;;23.00;49.40;;;;;;5069382;28;20286;-76
2023/01/14 01:27:43;;;;;;;20.63;6.67;;;23.00;49.40;;;;;;5066380;28;20208;-77
2023/01/14 01:30:13;;;;;;;12.20;3.50;;;23.00;49.70;;;;;;5067943;28;20203;-76
2023/01/14 01:32:40;;;;;;;9.57;3.67;;;23.10;49.20;;;;;;5079554;28;20846;-75
2023/01/14 01:35:07;;;;;;;7.73;3.13;;;23.10;50.20;;;;;;5091502;28;20966;-81
2023/01/14 01:37:34;;;;;;;10.67;3.63;;;23.10;49.70;;;;;;5074454;28;20784;-84
2023/01/14 01:40:02;;;;;;;9.60;3.50;;;23.10;49.70;;;;;;5069401;28;20325;-79
2023/01/14 01:42:33;;;;;;;7.77;3.20;;;23.10;49.60;;;;;;5070934;28;20184;-78
2023/01/14 01:45:21;;;;;;;13.87;4.93;;;23.10;49.90;;;;;;5069409;28;20610;-79
2023/01/14 01:47:57;;;;;;;11.23;3.77;;;23.10;49.30;;;;;;5070706;28;20684;-82
2023/01/14 01:50:24;;;;;;;9.53;3.40;;;23.20;50.00;;;;;;5069844;28;20277;-84
2023/01/14 01:52:52;;;;;;;9.70;3.80;;;23.30;50.10;;;;;;5070987;28;20548;-84
2023/01/14 01:55:20;;;;;;;9.03;3.17;;;23.30;50.10;;;;;;5070638;28;20209;-83
2023/01/14 01:57:55;;;;;;;10.37;3.70;;;23.30;50.20;;;;;;5070135;28;20868;-72
2023/01/14 02:00:59;;;;;;;12.20;4.30;;;23.30;50.00;;;;;;5065463;28;21027;-82
2023/01/14 02:03:33;;;;;;;13.60;4.10;;;23.40;50.00;;;;;;5064838;28;20207;-82
2023/01/14 02:06:01;;;;;;;11.63;3.83;;;23.40;49.40;;;;;;5064667;28;20199;-82
2023/01/14 02:08:28;;;;;;;11.67;3.67;;;23.40;49.40;;;;;;5068007;28;20306;-82
2023/01/14 02:11:13;;;;;;;10.00;3.80;;;23.40;49.60;;;;;;5069370;28;20210;-83
2023/01/14 02:13:50;;;;;;;9.27;3.30;;;23.40;49.40;;;;;;5069533;28;20282;-82
2023/01/14 02:16:26;;;;;;;12.80;4.87;;;23.50;49.80;;;;;;5067671;28;20567;-82
2023/01/14 02:19:09;;;;;;;8.43;2.97;;;23.50;49.50;;;;;;5064874;28;20747;-82
2023/01/14 02:21:41;;;;;;;9.30;3.47;;;23.50;49.50;;;;;;5065115;28;20223;-83
2023/01/14 02:24:44;;;;;;;14.00;4.57;;;23.50;49.50;;;;;;5061234;28;20206;-82
2023/01/14 02:27:37;;;;;;;15.20;5.53;;;23.50;49.30;;;;;;5031080;28;20203;-80
2023/01/14 02:30:32;;;;;;;11.67;4.47;;;23.50;49.30;;;;;;5062176;28;20318;-79
2023/01/14 02:33:09;;;;;;;15.20;4.53;;;23.50;49.50;;;;;;5065730;28;20321;-81
2023/01/14 02:35:43;;;;;;;19.40;6.13;;;23.50;49.50;;;;;;5059667;28;20210;-79
2023/01/14 02:38:26;;;;;;;12.97;4.27;;;23.50;49.50;;;;;;5062285;28;20286;-80
2023/01/14 02:40:59;;;;;;;13.87;4.67;;;23.50;49.40;;;;;;5059320;28;20895;-78
2023/01/14 02:46:25;;;;;;;18.83;6.10;;;23.50;49.40;;;;;;5060160;28;20222;-78
2023/01/14 02:48:54;;;;;;;16.87;5.70;;;23.50;49.50;;;;;;5059511;28;20210;-81
2023/01/14 02:51:22;;;;;;;13.57;5.03;;;23.50;50.10;;;;;;5056772;28;20295;-81
2023/01/14 02:53:49;;;;;;;15.77;5.37;;;23.50;49.50;;;;;;5059285;28;20311;-81
2023/01/14 02:56:16;;;;;;;14.50;4.57;;;23.50;49.40;;;;;;5061773;28;20200;-81
2023/01/14 02:59:06;;;;;;;13.57;4.77;;;23.50;49.50;;;;;;5059619;28;20196;-81
2023/01/14 03:01:48;;;;;;;9.20;3.57;;;23.50;50.10;;;;;;5060691;28;20325;-80
2023/01/14 03:04:29;;;;;;;15.47;5.27;;;23.50;49.10;;;;;;5061179;28;20213;-83
2023/01/14 03:07:06;;;;;;;14.43;4.60;;;23.50;49.50;;;;;;5065941;28;20204;-83
2023/01/14 03:09:40;;;;;;;15.23;5.17;;;23.50;49.50;;;;;;5058865;28;20202;-81
2023/01/14 03:12:16;;;;;;;14.27;4.80;;;23.50;49.30;;;;;;5059285;28;20203;-79
2023/01/14 03:14:47;;;;;;;14.53;4.70;;;23.50;49.10;;;;;;5060222;28;21817;-81
2023/01/14 03:17:20;;;;;;;15.80;5.33;;;23.50;49.10;;;;;;5056511;28;20196;-79
2023/01/14 03:19:57;;;;;;;14.27;4.80;;;23.50;48.90;;;;;;5058873;28;20287;-81
2023/01/14 03:22:27;;;;;;;15.97;5.27;;;23.50;49.30;;;;;;5058682;28;20318;-82
2023/01/14 03:24:58;;;;;;;17.63;5.67;;;23.50;49.50;;;;;;5058161;28;20558;-80
2023/01/14 03:27:28;;;;;;;15.77;5.33;;;23.60;49.60;;;;;;5059759;28;20287;-80
2023/01/14 03:30:01;;;;;;;11.10;4.30;;;23.60;49.60;;;;;;5059984;28;20214;-81
2023/01/14 03:32:34;;;;;;;14.40;5.23;;;23.60;49.50;;;;;;5061454;28;20206;-81
2023/01/14 03:35:08;;;;;;;10.00;3.27;;;23.60;49.50;;;;;;5062711;28;20199;-82
2023/01/14 03:37:36;;;;;;;10.17;4.13;;;23.60;49.30;;;;;;5070387;28;20307;-82
2023/01/14 03:40:09;;;;;;;11.93;4.17;;;23.60;49.20;;;;;;5067101;28;20203;-80
2023/01/14 03:42:41;;;;;;;15.40;4.97;;;23.60;49.30;;;;;;5059221;28;20306;-82
2023/01/14 03:45:13;;;;;;;11.03;3.27;;;23.60;49.10;;;;;;5059639;28;20222;-82
2023/01/14 03:47:46;;;;;;;14.43;4.80;;;23.60;49.10;;;;;;5057783;28;20544;-83
2023/01/14 03:50:16;;;;;;;14.43;5.17;;;23.60;49.20;;;;;;5060301;28;20199;-79
2023/01/14 03:53:09;;;;;;;18.57;5.67;;;23.60;49.50;;;;;;5059025;28;20273;-83
2023/01/14 03:55:44;;;;;;;17.73;5.37;;;23.50;48.90;;;;;;5058332;28;20196;-83
2023/01/14 03:58:20;;;;;;;13.63;4.97;;;23.60;49.20;;;;;;5058665;28;20257;-83
2023/01/14 04:00:51;;;;;;;16.53;5.40;;;23.60;48.90;;;;;;5058104;28;20704;-84
2023/01/14 04:03:20;;;;;;;12.40;4.47;;;23.60;49.30;;;;;;5062770;28;20202;-81
2023/01/14 04:05:48;;;;;;;15.73;5.50;;;23.60;49.30;;;;;;5058249;28;20976;-84
2023/01/14 04:08:20;;;;;;;15.37;5.37;;;23.60;49.30;;;;;;5059164;28;20754;-84
2023/01/14 04:10:47;;;;;;;18.27;5.93;;;23.60;49.00;;;;;;5058895;28;20204;-81
2023/01/14 04:16:00;;;;;;;18.90;6.33;;;23.60;48.90;;;;;;5058272;28;20634;-81
2023/01/14 04:18:29;;;;;;;13.00;4.40;;;23.60;49.20;;;;;;5058613;28;20200;-81
2023/01/14 04:20:56;;;;;;;18.10;5.93;;;23.60;49.00;;;;;;5057166;28;20318;-79
2023/01/14 04:23:22;;;;;;;18.90;5.77;;;23.60;48.90;;;;;;5058184;28;20201;-80
2023/01/14 04:25:56;;;;;;;15.23;5.27;;;23.50;48.80;;;;;;5058345;28;20200;-79
2023/01/14 04:28:23;;;;;;;12.33;4.63;;;23.60;48.70;;;;;;5057436;28;20200;-81
2023/01/14 04:30:50;;;;;;;15.47;5.27;;;23.60;48.80;;;;;;5057308;28;20203;-78
2023/01/14 04:33:17;;;;;;;13.10;4.40;;;23.60;48.90;;;;;;5062695;28;20214;-83
2023/01/14 04:35:48;;;;;;;18.23;5.90;;;23.60;48.80;;;;;;5062573;28;20659;-79
2023/01/14 04:38:15;;;;;;;13.63;4.57;;;23.60;48.70;;;;;;5065732;28;20203;-83
2023/01/14 04:40:42;;;;;;;18.20;5.93;;;23.60;48.80;;;;;;5062717;28;20223;-82
2023/01/14 04:43:08;;;;;;;16.60;5.63;;;23.60;48.90;;;;;;5062758;28;20223;-83
2023/01/14 04:45:35;;;;;;;16.57;5.43;;;23.60;48.70;;;;;;5062015;28;20199;-83
2023/01/14 04:48:03;;;;;;;23.63;8.03;;;23.60;49.40;;;;;;5061149;28;20206;-82
2023/01/14 04:50:33;;;;;;;18.33;6.17;;;23.60;48.80;;;;;;5061903;28;20198;-83
2023/01/14 04:53:12;;;;;;;16.37;5.57;;;23.60;48.90;;;;;;5062234;28;20201;-81
2023/01/14 04:55:41;;;;;;;17.00;5.47;;;23.60;48.40;;;;;;5060441;28;20667;-79
2023/01/14 04:58:09;;;;;;;18.97;6.20;;;23.60;48.60;;;;;;5065120;28;20205;-82
2023/01/14 05:00:38;;;;;;;19.83;5.83;;;23.60;48.70;;;;;;5060971;28;20223;-81
2023/01/14 05:03:06;;;;;;;10.43;3.80;;;23.60;48.90;;;;;;5065638;28;20294;-79
2023/01/14 05:05:34;;;;;;;19.83;6.20;;;23.50;48.70;;;;;;5061591;28;20202;-81
2023/01/14 05:08:02;;;;;;;17.07;5.70;;;23.60;48.80;;;;;;5062621;28;20198;-79
2023/01/14 05:10:31;;;;;;;14.97;5.17;;;23.50;48.60;;;;;;5061996;28;20253;-79
2023/01/14 05:12:58;;;;;;;17.43;5.77;;;23.60;48.70;;;;;;5060953;28;20383;-82
2023/01/14 05:15:26;;;;;;;19.37;6.43;;;23.50;48.70;;;;;;5062295;28;20227;-82
2023/01/14 05:17:54;;;;;;;18.57;5.90;;;23.50;48.70;;;;;;5060749;28;20199;-82
2023/01/14 05:20:23;;;;;;;18.50;6.23;;;23.50;48.70;;;;;;5061722;28;20199;-84
2023/01/14 05:22:50;;;;;;;15.60;4.83;;;23.50;48.80;;;;;;5067573;28;20227;-84
2023/01/14 05:25:17;;;;;;;6.97;2.93;;;23.50;48.80;;;;;;5064778;28;20204;-81
2023/01/14 05:27:45;;;;;;;23.43;6.97;;;23.50;48.70;;;;;;5063928;28;20231;-82
2023/01/14 05:30:13;;;;;;;15.00;5.17;;;23.50;48.80;;;;;;5061126;28;20660;-80
2023/01/14 05:32:40;;;;;;;13.37;4.33;;;23.50;48.70;;;;;;5061517;28;20203;-79
2023/01/14 05:35:08;;;;;;;9.23;3.77;;;23.50;48.70;;;;;;5062976;28;20200;-84
2023/01/14 05:37:35;;;;;;;9.67;3.77;;;23.50;48.90;;;;;;5069303;28;20559;-83
2023/01/14 05:40:02;;;;;;;16.87;5.53;;;23.50;48.60;;;;;;5061738;28;20222;-84
2023/01/14 05:48:00;;;;;;;14.90;5.23;;;23.50;48.60;;;;;;5063223;28;20202;-81
2023/01/14 05:50:27;;;;;;;9.97;3.77;;;23.50;48.50;;;;;;5066249;28;20207;-83
2023/01/14 05:52:54;;;;;;;20.27;6.63;;;23.50;48.50;;;;;;5061882;28;20289;-81
2023/01/14 05:55:21;;;;;;;14.27;5.30;;;23.50;48.60;;;;;;5067838;28;20326;-82
2023/01/14 05:57:48;;;;;;;16.00;5.27;;;23.50;48.60;;;;;;5060789;28;20210;-83
2023/01/14 06:08:28;;;;;;;17.13;5.53;;;23.50;48.80;;;;;;5063752;28;20209;-79
2023/01/14 06:10:55;;;;;;;9.33;3.67;;;23.50;48.60;;;;;;5069614;28;20188;-80
2023/01/14 06:13:23;;;;;;;16.43;5.27;;;23.50;48.70;;;;;;5061907;28;20286;-79
2023/01/14 06:15:52;;;;;;;10.20;3.63;;;23.50;48.70;;;;;;5063757;28;20204;-79
2023/01/14 06:18:22;;;;;;;15.70;5.13;;;23.50;48.70;;;;;;5062841;28;20199;-82
2023/01/14 06:20:49;;;;;;;8.60;3.53;;;23.50;48.80;;;;;;5063807;28;20207;-81
2023/01/14 06:23:16;;;;;;;14.80;4.80;;;23.40;48.80;;;;;;5064045;28;20218;-79
2023/01/14 06:25:44;;;;;;;10.60;3.93;;;23.40;48.90;;;;;;5066900;28;20206;-83
2023/01/14 06:28:11;;;;;;;20.00;6.23;;;23.40;48.90;;;;;;5062917;28;20200;-83
2023/01/14 06:30:38;;;;;;;11.03;4.17;;;23.40;48.80;;;;;;5064624;28;20206;-80
2023/01/14 06:33:07;;;;;;;10.70;3.43;;;23.40;48.80;;;;;;5067832;28;20209;-83
2023/01/14 06:35:35;;;;;;;8.10;3.20;;;23.40;49.40;;;;;;5067745;28;20231;-84
2023/01/14 06:38:02;;;;;;;17.03;5.60;;;23.40;49.20;;;;;;5059177;28;20205;-84
2023/01/14 06:40:29;;;;;;;13.53;4.80;;;23.40;49.40;;;;;;5063716;28;20239;-80
2023/01/14 06:42:56;;;;;;;9.83;3.50;;;23.40;48.70;;;;;;5063156;28;20231;-83
2023/01/14 06:45:23;;;;;;;13.67;4.90;;;23.40;48.60;;;;;;5066617;28;20286;-83
2023/01/14 06:47:51;;;;;;;18.73;5.97;;;23.40;48.70;;;;;;5052961;28;20195;-83
2023/01/14 06:50:19;;;;;;;19.70;6.53;;;23.40;48.70;;;;;;5059087;28;20200;-79
2023/01/14 06:52:48;;;;;;;17.73;5.90;;;23.40;48.60;;;;;;5059475;28;20345;-84
2023/01/14 06:55:15;;;;;;;17.17;5.63;;;23.40;48.70;;;;;;5064408;28;20203;-84
2023/01/14 06:57:44;;;;;;;19.83;5.80;;;23.50;48.70;;;;;;5060655;28;20209;-84
2023/01/14 07:00:15;;;;;;;8.20;3.07;;;23.40;48.80;;;;;;5064859;28;20242;-83
2023/01/14 07:02:41;;;;;;;9.77;3.73;;;23.40;48.90;;;;;;5067150;28;20229;-82
2023/01/14 07:05:09;;;;;;;16.43;5.70;;;23.40;48.80;;;;;;5063645;28;20233;-79
2023/01/14 07:07:37;;;;;;;11.33;3.87;;;23.40;48.90;;;;;;5065834;28;20557;-83
2023/01/14 07:10:05;;;;;;;18.07;5.57;;;23.40;48.70;;;;;;5065264;28;20239;-82
2023/01/14 07:12:32;;;;;;;13.63;4.40;;;23.40;48.90;;;;;;5068222;28;20666;-83
2023/01/14 07:14:58;;;;;;;12.10;4.53;;;23.40;48.90;;;;;;5060354;28;20211;-82
2023/01/14 07:17:25;;;;;;;13.20;4.93;;;23.40;49.00;;;;;;5060986;28;20191;-82
2023/01/14 07:19:52;;;;;;;16.50;5.60;;;23.40;48.70;;;;;;5066676;28;20295;-77
2023/01/14 07:22:19;;;;;;;8.27;3.57;;;23.40;48.60;;;;;;5063909;28;20269;-77
2023/01/14 07:24:48;;;;;;;10.43;4.17;;;23.40;48.70;;;;;;5066625;28;20669;-81
2023/01/14 07:27:16;;;;;;;26.07;8.00;;;23.40;48.80;;;;;;5056355;28;20268;-85
2023/01/14 07:29:43;;;;;;;12.67;3.30;;;23.40;48.90;;;;;;5067220;28;20235;-85
2023/01/14 07:32:09;;;;;;;9.07;3.55;;;23.50;49.00;;;;;;5066876;28;20447;-82
2023/01/14 07:34:36;;;;;;;15.40;5.33;;;23.30;48.80;;;;;;5061777;28;20198;-86
2023/01/14 07:37:03;;;;;;;8.83;3.43;;;23.30;49.10;;;;;;5064266;28;20207;-89
2023/01/14 07:39:30;;;;;;;8.30;3.10;;;23.40;49.00;;;;;;5066087;28;20285;-89
2023/01/14 07:42:02;;;;;;;10.20;3.90;;;23.50;48.90;;;;;;5064202;28;20229;-78
2023/01/14 07:44:28;;;;;;;20.70;6.73;;;23.50;48.80;;;;;;5061165;28;20983;-80
2023/01/14 07:46:56;;;;;;;7.50;2.97;;;23.50;48.90;;;;;;5067561;28;20199;-80
2023/01/14 07:49:23;;;;;;;9.07;3.13;;;23.50;49.40;;;;;;5067545;28;20226;-78
2023/01/14 07:51:50;;;;;;;7.37;3.17;;;23.50;48.80;;;;;;5068450;28;20210;-79
2023/01/14 07:54:18;;;;;;;15.03;4.73;;;23.60;48.80;;;;;;5066251;28;20199;-79
2023/01/14 07:56:45;;;;;;;14.27;4.70;;;23.60;48.70;;;;;;5052102;28;20203;-81
2023/01/14 07:59:14;;;;;;;7.73;3.10;;;23.60;48.70;;;;;;5067149;28;20223;-77
2023/01/14 08:01:41;;;;;;;11.37;3.70;;;23.60;48.90;;;;;;5066509;28;20641;-79
2023/01/14 08:04:08;;;;;;;8.50;3.13;;;23.60;48.70;;;;;;5067998;28;20199;-80
2023/01/14 08:06:35;;;;;;;11.37;4.13;;;23.60;48.80;;;;;;5066575;28;20290;-78
2023/01/14 08:09:02;;;;;;;10.00;3.90;;;23.50;48.70;;;;;;5068215;28;20199;-80
2023/01/14 08:11:29;;;;;;;14.63;4.97;;;23.50;48.70;;;;;;5071065;28;20210;-80
2023/01/14 08:13:59;;;;;;;9.43;3.43;;;23.50;48.70;;;;;;5071542;28;20278;-78
2023/01/14 08:16:27;;;;;;;7.87;3.03;;;23.50;48.50;;;;;;5072187;28;20613;-77
2023/01/14 08:18:54;;;;;;;6.53;2.83;;;23.50;48.60;;;;;;5071484;28;20210;-78
2023/01/14 08:21:21;;;;;;;9.67;3.53;;;23.50;48.70;;;;;;5053472;28;20710;-78
2023/01/14 08:23:48;;;;;;;7.90;3.07;;;23.50;48.70;;;;;;5065501;28;20794;-78
2023/01/14 08:26:15;;;;;;;11.97;4.40;;;23.50;48.80;;;;;;5068392;28;20200;-78
2023/01/14 08:28:42;;;;;;;9.13;3.43;;;23.50;48.60;;;;;;5070320;28;20294;-78
2023/01/14 08:31:12;;;;;;;7.77;3.23;;;23.50;48.60;;;;;;5071222;28;20207;-77
2023/01/14 08:33:41;;;;;;;11.77;4.03;;;23.40;48.50;;;;;;5070963;28;20679;-80
2023/01/14 08:36:11;;;;;;;8.27;3.23;;;23.40;48.40;;;;;;5054702;28;20210;-78
2023/01/14 08:38:39;;;;;;;7.43;3.00;;;23.40;48.50;;;;;;5071661;28;20196;-80
2023/01/14 08:41:08;;;;;;;10.70;4.20;;;23.40;48.50;;;;;;5069527;28;20220;-80
2023/01/14 08:43:35;;;;;;;9.63;3.47;;;23.40;48.60;;;;;;5059876;28;20222;-80
2023/01/14 08:46:03;;;;;;;7.77;2.87;;;23.30;48.60;;;;;;5070576;28;20203;-81
2023/01/14 08:48:30;;;;;;;11.40;4.13;;;23.30;48.50;;;;;;5069816;28;20283;-79
2023/01/14 08:51:01;;;;;;;9.03;3.60;;;23.30;48.60;;;;;;5070744;28;20200;-80
2023/01/14 08:53:29;;;;;;;12.43;4.57;;;23.30;48.50;;;;;;5069355;28;20647;-80
2023/01/14 08:55:57;;;;;;;7.03;2.90;;;23.30;48.70;;;;;;5055046;28;20282;-80
2023/01/14 08:58:24;;;;;;;9.87;3.50;;;23.30;48.70;;;;;;5071557;28;20195;-80
2023/01/14 09:00:55;;;;;;;9.20;3.60;;;23.30;48.70;;;;;;5069775;28;20238;-80
2023/01/14 09:03:22;;;;;;;8.63;3.43;;;23.20;48.50;;;;;;5063480;28;20240;-81
2023/01/14 09:05:49;;;;;;;8.67;3.30;;;23.20;48.60;;;;;;5054644;28;20208;-81
2023/01/14 09:19:15;;;;;;;8.37;3.03;;;23.10;48.80;;;;;;5067805;28;20237;-81
2023/01/14 09:21:42;;;;;;;7.80;3.23;;;23.10;48.80;;;;;;5063948;28;20651;-81
2023/01/14 09:24:11;;;;;;;8.33;3.13;;;23.10;48.80;;;;;;5070863;28;20294;-78
2023/01/14 09:26:38;;;;;;;12.00;4.00;;;23.10;48.90;;;;;;5068412;28;20204;-80
2023/01/14 09:29:05;;;;;;;9.97;3.90;;;23.10;48.80;;;;;;5069581;28;20192;-81
2023/01/14 09:31:31;;;;;;;7.10;2.87;;;23.10;48.80;;;;;;5069037;28;20287;-80
2023/01/14 09:33:58;;;;;;;6.80;2.80;;;23.10;48.80;;;;;;5071069;28;20455;-81
2023/01/14 09:36:25;;;;;;;11.87;4.03;;;23.10;48.80;;;;;;5068903;28;20208;-80
2023/01/14 09:38:53;;;;;;;7.67;2.97;;;23.00;48.70;;;;;;5069423;28;20294;-81
2023/01/14 09:41:31;;;;;;;13.47;4.20;;;23.00;48.80;;;;;;5070098;28;20203;-80
2023/01/14 09:43:58;;;;;;;6.53;2.63;;;23.00;48.70;;;;;;5070930;28;20223;-78
2023/01/14 09:46:27;;;;;;;14.67;4.83;;;23.00;49.20;;;;;;5068612;28;20314;-78
2023/01/14 09:48:57;;;;;;;6.83;2.73;;;23.00;49.00;;;;;;5071100;28;20226;-80
2023/01/14 09:51:55;;;;;;;6.60;2.57;;;23.00;49.00;;;;;;5069765;28;20675;-78
2023/01/14 09:54:30;;;;;;;7.50;2.87;;;23.00;48.90;;;;;;5015801;28;20206;-78
2023/01/14 09:57:08;;;;;;;7.50;3.10;;;23.00;49.10;;;;;;5068862;28;20293;-78
2023/01/14 09:59:40;;;;;;;6.30;2.63;;;23.00;49.10;;;;;;5070674;28;20288;-78
2023/01/14 10:02:14;;;;;;;11.17;3.93;;;23.00;49.10;;;;;;5068828;28;20195;-77
2023/01/14 10:05:02;;;;;;;6.50;2.67;;;22.90;49.00;;;;;;5069597;28;20226;-77
2023/01/14 10:07:30;;;;;;;21.07;6.23;;;22.90;49.00;;;;;;5066737;28;20215;-78
2023/01/14 10:09:58;;;;;;;9.20;3.17;;;22.90;49.00;;;;;;5072091;28;20218;-80
2023/01/14 10:12:31;;;;;;;8.40;2.83;;;22.90;49.00;;;;;;5070357;28;20199;-78
2023/01/14 10:15:02;;;;;;;11.47;3.73;;;22.90;49.00;;;;;;5078149;28;20663;-78
2023/01/14 10:17:34;;;;;;;13.67;4.37;;;22.90;49.00;;;;;;5067776;28;20298;-77
2023/01/14 10:20:08;;;;;;;5.80;2.17;;;22.90;49.00;;;;;;5068544;28;20215;-77
2023/01/14 10:22:40;;;;;;;7.73;2.97;;;22.90;49.00;;;;;;5068907;28;20223;-78
2023/01/14 10:25:15;;;;;;;10.27;3.43;;;22.90;49.00;;;;;;5068447;28;20210;-80
2023/01/14 10:27:45;;;;;;;6.93;2.80;;;22.90;49.00;;;;;;5064673;28;20203;-80
2023/01/14 10:30:19;;;;;;;6.90;2.83;;;22.90;49.00;;;;;;5069398;28;20210;-79
2023/01/14 10:32:49;;;;;;;11.53;3.93;;;22.80;49.00;;;;;;5068720;28;20282;-79
2023/01/14 10:35:21;;;;;;;7.27;2.83;;;22.90;49.10;;;;;;5061535;28;20191;-80
2023/01/14 10:37:48;;;;;;;8.03;3.10;;;22.90;49.10;;;;;;5052968;28;20204;-78
2023/01/14 10:40:23;;;;;;;8.07;3.03;;;22.80;49.00;;;;;;5051503;28;22186;-78
2023/01/14 10:42:52;;;;;;;10.43;3.77;;;22.90;49.30;;;;;;5069216;28;20233;-78
2023/01/14 10:45:19;;;;;;;8.60;3.23;;;22.80;49.30;;;;;;5069071;28;20196;-78
2023/01/14 10:47:48;;;;;;;14.23;4.60;;;22.80;49.20;;;;;;5068186;28;20209;-79
2023/01/14 10:50:22;;;;;;;12.80;4.20;;;22.80;49.20;;;;;;5066653;28;20204;-79
2023/01/14 10:52:50;;;;;;;14.97;4.73;;;22.80;49.20;;;;;;5069459;28;20213;-83
2023/01/14 10:55:18;;;;;;;10.37;3.60;;;22.80;49.30;;;;;;5060987;28;20206;-76
2023/01/14 10:57:49;;;;;;;11.47;3.43;;;22.80;49.30;;;;;;5062223;28;20717;-76
2023/01/14 11:00:38;;;;;;;6.93;2.67;;;22.80;49.40;;;;;;5069175;28;20254;-75
2023/01/14 11:03:07;;;;;;;9.80;3.13;;;22.80;49.40;;;;;;5068035;28;20276;-75
2023/01/14 11:05:36;;;;;;;8.53;3.00;;;22.80;49.40;;;;;;5069145;28;20230;-76
2023/01/14 11:08:19;;;;;;;7.37;2.70;;;22.80;49.40;;;;;;5065006;28;20216;-75
2023/01/14 11:10:54;;;;;;;8.07;3.33;;;22.80;49.40;;;;;;5068267;28;20203;-76
2023/01/14 11:13:28;;;;;;;6.37;2.60;;;22.80;49.50;;;;;;5068548;28;20203;-76
2023/01/14 11:15:57;;;;;;;8.77;2.97;;;22.80;49.50;;;;;;5069012;28;20557;-74
2023/01/14 11:18:27;;;;;;;6.70;2.60;;;22.80;49.50;;;;;;5063393;28;20215;-75
2023/01/14 11:21:01;;;;;;;6.80;2.60;;;22.80;49.50;;;;;;5048475;28;20218;-74
2023/01/14 11:23:30;;;;;;;15.13;4.90;;;22.80;49.50;;;;;;5052502;28;20253;-76
2023/01/14 11:26:00;;;;;;;7.07;2.57;;;22.80;49.50;;;;;;5068735;28;20203;-74
2023/01/14 11:28:27;;;;;;;7.83;2.80;;;22.80;49.70;;;;;;5065191;28;20199;-74
2023/01/14 11:30:57;;;;;;;6.87;2.57;;;22.80;49.80;;;;;;5067344;28;20199;-76
2023/01/14 11:33:26;;;;;;;5.50;2.43;;;22.80;49.70;;;;;;5066891;28;20279;-76
2023/01/14 11:35:57;;;;;;;7.00;2.70;;;22.80;49.70;;;;;;5067472;28;20203;-75
2023/01/14 11:38:26;;;;;;;7.07;2.60;;;22.80;49.70;;;;;;5067501;28;20294;-75
2023/01/14 11:43:53;;;;;;;7.77;2.83;;;22.80;49.80;;;;;;5066353;28;20376;-75
2023/01/14 11:46:21;;;;;;;8.87;3.10;;;22.80;49.70;;;;;;5065827;28;20203;-76
2023/01/14 11:49:17;;;;;;;12.63;4.33;;;22.80;49.90;;;;;;5067553;28;20992;-74
2023/01/14 11:51:57;;;;;;;7.37;2.50;;;22.80;50.80;;;;;;5068169;28;20199;-73
2023/01/14 11:54:25;;;;;;;6.83;2.60;;;22.80;50.00;;;;;;5067949;28;20217;-74
2023/01/14 11:56:52;;;;;;;7.67;2.80;;;22.70;49.90;;;;;;5067587;28;20797;-74
2023/01/14 11:59:27;;;;;;;9.67;3.23;;;22.80;49.90;;;;;;5065911;28;20319;-74
2023/01/14 12:02:00;;;;;;;9.07;3.20;;;22.80;50.00;;;;;;5063953;28;20206;-75
2023/01/14 12:04:32;;;;;;;12.03;3.90;;;22.80;50.10;;;;;;5059365;28;20583;-78
2023/01/14 12:07:04;;;;;;;8.00;2.93;;;22.80;49.90;;;;;;5068162;28;20221;-74
2023/01/14 12:09:41;;;;;;;7.27;2.70;;;22.80;50.10;;;;;;5067823;28;20286;-77
2023/01/14 12:12:14;;;;;;;5.97;2.23;;;22.80;50.00;;;;;;5068027;28;20199;-74
2023/01/14 12:17:35;;;;;;;6.90;2.43;;;22.80;50.00;;;;;;5062475;28;20202;-74
2023/01/14 12:20:07;;;;;;;7.33;2.70;;;22.80;50.00;;;;;;5066296;28;20581;-75
2023/01/14 12:22:39;;;;;;;7.50;2.80;;;22.80;50.00;;;;;;5067279;28;20213;-75
2023/01/14 12:25:16;;;;;;;6.70;2.43;;;22.80;50.30;;;;;;5068128;28;20191;-74
2023/01/14 12:27:51;;;;;;;12.67;4.23;;;22.80;50.20;;;;;;5066444;28;20195;-74
2023/01/14 12:30:26;;;;;;;7.77;2.77;;;22.80;50.20;;;;;;5067064;28;20217;-75
2023/01/14 12:33:02;;;;;;;6.00;2.43;;;22.80;50.20;;;;;;5066916;28;20198;-74
2023/01/14 12:35:35;;;;;;;6.17;2.47;;;22.80;50.20;;;;;;5067400;28;20203;-75
2023/01/14 12:45:41;;;;;;;12.77;4.10;;;22.80;50.20;;;;;;5066397;28;20298;-73
2023/01/14 12:46:35;;;;;;;7.80;2.77;;;22.80;50.20;;;;;;5066364;28;20210;-74
2023/01/14 12:49:05;;;;;;;7.63;3.03;;;22.80;50.30;;;;;;5066095;28;20302;-75
2023/01/14 12:51:35;;;;;;;5.40;2.20;;;22.80;50.40;;;;;;5067766;28;20238;-75
2023/01/14 12:54:05;;;;;;;8.57;2.93;;;22.80;50.30;;;;;;5069451;28;20216;-75
2023/01/14 12:56:36;;;;;;;7.87;2.70;;;22.90;50.40;;;;;;5063541;28;20200;-76
2023/01/14 12:59:08;;;;;;;7.00;2.50;;;22.80;50.60;;;;;;5066546;28;20231;-76
2023/01/14 13:01:38;;;;;;;9.30;3.30;;;22.90;50.80;;;;;;5067419;28;20200;-75
2023/01/14 13:04:18;;;;;;;7.70;2.77;;;22.80;51.30;;;;;;5068085;28;20227;-74
2023/01/14 13:06:46;;;;;;;6.20;2.33;;;22.80;50.70;;;;;;5071055;28;20242;-76
2023/01/14 13:09:22;;;;;;;6.80;2.60;;;22.90;50.60;;;;;;5068749;28;20892;-73
2023/01/14 13:11:52;;;;;;;6.73;2.50;;;22.80;50.50;;;;;;5070786;28;20210;-74
2023/01/14 13:14:34;;;;;;;7.27;2.70;;;22.90;50.60;;;;;;5070482;28;20196;-73
2023/01/14 13:17:03;;;;;;;7.30;2.47;;;22.80;50.70;;;;;;5069356;28;20294;-75
2023/01/14 13:19:50;;;;;;;8.37;2.93;;;22.80;50.70;;;;;;5070076;28;20290;-73
2023/01/14 13:22:46;;;;;;;9.63;3.30;;;22.80;50.70;;;;;;5069475;28;20229;-73
2023/01/14 13:25:36;;;;;;;7.67;2.73;;;22.80;50.70;;;;;;5070428;28;20720;-74
2023/01/14 13:28:24;;;;;;;7.17;2.67;;;22.80;50.60;;;;;;5068954;28;20198;-73
2023/01/14 13:30:53;;;;;;;8.43;2.83;;;22.80;50.70;;;;;;5060185;28;20211;-73
2023/01/14 13:33:24;;;;;;;6.10;2.30;;;22.80;50.70;;;;;;5068682;28;20547;-73
2023/01/14 13:36:19;;;;;;;8.13;2.77;;;22.80;50.70;;;;;;5069742;28;20214;-73
2023/01/14 13:38:59;;;;;;;6.40;2.40;;;22.80;51.10;;;;;;5068327;28;20283;-73
2023/01/14 13:41:39;;;;;;;8.20;2.77;;;22.80;50.70;;;;;;5068653;28;20243;-73